createdAt,value
2023-01-12T00:02:19.937Z,100757.25
2023-01-12T00:04:48.547Z,100767.78
2023-01-12T00:07:18.190Z,100759.91
2023-01-12T00:09:46.877Z,100762.69
2023-01-12T00:12:15.393Z,100760.75
2023-01-12T00:14:43.975Z,100763.56
2023-01-12T00:17:16.701Z,100769.06
2023-01-12T00:19:46.581Z,100762.22
2023-01-12T00:22:17.693Z,100754.25
2023-01-12T00:24:49.859Z,100752.28
2023-01-12T00:27:20.712Z,100753.50
2023-01-12T00:29:49.372Z,100740.00
2023-01-12T00:32:19.858Z,100739.72
2023-01-12T00:34:49.904Z,100729.69
2023-01-12T00:37:20.483Z,100740.47
2023-01-12T00:40:02.250Z,100730.75
2023-01-12T00:42:48.849Z,100737.50
2023-01-12T00:45:24.069Z,100737.84
2023-01-12T00:47:53.370Z,100726.56
2023-01-12T00:50:23.645Z,100729.28
2023-01-12T00:52:52.233Z,100722.00
2023-01-12T00:55:21.065Z,100738.00
2023-01-12T00:57:49.584Z,100744.72
2023-01-12T01:00:18.972Z,100733.25
2023-01-12T01:02:47.612Z,100737.75
2023-01-12T01:05:17.671Z,100740.94
2023-01-12T01:07:47.520Z,100735.22
2023-01-12T01:10:17.026Z,100751.41
2023-01-12T01:12:45.596Z,100740.19
2023-01-12T01:15:14.010Z,100741.22
2023-01-12T01:17:42.250Z,100741.25
2023-01-12T01:20:12.660Z,100728.69
2023-01-12T01:22:40.880Z,100736.31
2023-01-12T01:25:11.114Z,100734.56
2023-01-12T01:27:39.338Z,100735.34
2023-01-12T01:30:09.156Z,100731.69
2023-01-12T01:32:37.646Z,100722.53
2023-01-12T01:35:06.713Z,100726.97
2023-01-12T01:37:35.189Z,100725.06
2023-01-12T01:40:03.721Z,100731.72
2023-01-12T01:42:33.593Z,100729.84
2023-01-12T01:45:05.115Z,100717.03
2023-01-12T01:47:40.160Z,100724.84
2023-01-12T01:50:18.024Z,100718.44
2023-01-12T01:52:50.614Z,100709.78
2023-01-12T01:55:23.566Z,100701.53
2023-01-12T01:57:58.007Z,100701.03
2023-01-12T02:00:27.171Z,100696.53
2023-01-12T02:02:57.325Z,100673.50
2023-01-12T02:05:28.717Z,100681.78
2023-01-12T02:08:02.135Z,100676.53
2023-01-12T02:10:30.783Z,100674.34
2023-01-12T02:13:18.441Z,100667.16
2023-01-12T02:19:21.126Z,100666.53
2023-01-12T02:22:29.762Z,100662.72
2023-01-12T02:25:51.118Z,100654.69
2023-01-12T02:28:47.302Z,100654.16
2023-01-12T02:31:44.158Z,100657.81
2023-01-12T02:34:27.147Z,100640.16
2023-01-12T02:37:04.257Z,100646.75
2023-01-12T02:39:39.516Z,100645.09
2023-01-12T02:42:35.284Z,100648.75
2023-01-12T02:45:16.481Z,100645.72
2023-01-12T02:47:52.525Z,100632.28
2023-01-12T02:50:27.964Z,100629.22
2023-01-12T02:53:05.359Z,100636.53
2023-01-12T02:55:35.219Z,100622.44
2023-01-12T02:58:07.033Z,100610.56
2023-01-12T03:00:38.943Z,100614.88
2023-01-12T03:03:08.952Z,100607.16
2023-01-12T03:05:41.306Z,100597.81
2023-01-12T03:08:12.413Z,100605.25
2023-01-12T03:10:56.671Z,100592.94
2023-01-12T03:13:27.803Z,100582.66
2023-01-12T03:15:58.462Z,100585.28
2023-01-12T03:18:34.097Z,100576.38
2023-01-12T03:21:06.215Z,100569.97
2023-01-12T03:23:41.435Z,100581.78
2023-01-12T03:26:12.028Z,100576.00
2023-01-12T03:28:44.731Z,100569.16
2023-01-12T03:31:15.589Z,100566.72
2023-01-12T03:33:46.754Z,100554.94
2023-01-12T03:36:25.842Z,100559.97
2023-01-12T03:39:03.150Z,100566.72
2023-01-12T03:41:41.371Z,100555.63
2023-01-12T03:44:15.898Z,100566.09
2023-01-12T03:46:53.006Z,100547.66
2023-01-12T03:49:30.484Z,100552.91
2023-01-12T03:52:01.921Z,100543.97
2023-01-12T03:54:32.130Z,100540.56
2023-01-12T03:57:01.937Z,100546.47
2023-01-12T03:59:30.712Z,100536.59
2023-01-12T04:01:59.284Z,100522.69
2023-01-12T04:04:29.168Z,100526.03
2023-01-12T04:06:58.629Z,100530.28
2023-01-12T04:09:27.937Z,100523.56
2023-01-12T04:12:19.035Z,100518.91
2023-01-12T04:14:48.685Z,100515.03
2023-01-12T04:17:17.696Z,100526.41
2023-01-12T04:19:48.734Z,100521.47
2023-01-12T04:22:35.274Z,100520.59
2023-01-12T04:25:04.812Z,100511.41
2023-01-12T04:27:33.325Z,100501.94
2023-01-12T04:30:01.871Z,100509.34
2023-01-12T04:32:30.374Z,100493.88
2023-01-12T04:35:00.228Z,100481.91
2023-01-12T04:37:28.722Z,100482.22
2023-01-12T04:39:57.202Z,100475.50
2023-01-12T04:42:43.265Z,100473.03
2023-01-12T04:45:12.486Z,100468.75
2023-01-12T04:47:41.015Z,100460.88
2023-01-12T04:50:12.003Z,100457.94
2023-01-12T04:52:40.788Z,100454.63
2023-01-12T04:55:09.828Z,100452.56
2023-01-12T04:57:38.335Z,100441.91
2023-01-12T05:00:08.404Z,100437.56
2023-01-12T05:02:36.910Z,100428.44
2023-01-12T05:05:05.901Z,100420.84
2023-01-12T05:07:35.769Z,100420.47
2023-01-12T05:10:21.900Z,100413.75
2023-01-12T05:12:50.406Z,100415.59
2023-01-12T05:15:19.025Z,100398.00
2023-01-12T05:17:47.537Z,100399.59
2023-01-12T05:20:16.353Z,100400.00
2023-01-12T05:22:48.420Z,100401.84
2023-01-12T05:25:17.154Z,100379.81
2023-01-12T05:27:45.643Z,100380.75
2023-01-12T05:30:14.470Z,100381.91
2023-01-12T05:32:42.997Z,100353.84
2023-01-12T05:35:11.633Z,100351.13
2023-01-12T05:37:40.149Z,100344.91
2023-01-12T05:40:11.565Z,100341.25
2023-01-12T05:42:58.065Z,100329.88
2023-01-12T05:45:26.586Z,100321.03
2023-01-12T05:47:59.257Z,100324.13
2023-01-12T05:50:27.945Z,100333.41
2023-01-12T05:52:57.052Z,100318.38
2023-01-12T05:55:26.975Z,100309.75
2023-01-12T05:57:55.507Z,100327.13
2023-01-12T06:00:24.582Z,100311.47
2023-01-12T06:02:53.080Z,100308.84
2023-01-12T06:05:21.623Z,100303.31
2023-01-12T06:07:50.111Z,100320.59
2023-01-12T06:10:19.240Z,100306.19
2023-01-12T06:13:09.369Z,100294.16
2023-01-12T06:15:37.666Z,100307.94
2023-01-12T06:18:05.947Z,100315.75
2023-01-12T06:20:34.146Z,100292.59
2023-01-12T06:23:02.985Z,100287.47
2023-01-12T06:25:31.358Z,100280.63
2023-01-12T06:28:01.250Z,100289.22
2023-01-12T06:30:29.729Z,100286.00
2023-01-12T06:33:02.030Z,100278.31
2023-01-12T06:35:30.532Z,100294.88
2023-01-12T06:37:59.121Z,100293.63
2023-01-12T06:40:27.645Z,100287.97
2023-01-12T06:42:56.148Z,100287.50
2023-01-12T06:45:26.000Z,100303.00
2023-01-12T06:47:55.461Z,100287.44
2023-01-12T06:50:23.718Z,100283.88
2023-01-12T06:52:52.399Z,100271.34
2023-01-12T06:55:21.065Z,100278.84
2023-01-12T06:57:49.602Z,100292.97
2023-01-12T07:00:18.591Z,100303.25
2023-01-12T07:02:51.326Z,100317.34
2023-01-12T07:05:19.940Z,100309.47
2023-01-12T07:07:48.458Z,100301.38
2023-01-12T07:10:17.481Z,100310.31
2023-01-12T07:12:46.048Z,100304.72
2023-01-12T07:15:15.469Z,100303.50
2023-01-12T07:17:43.972Z,100299.22
2023-01-12T07:20:14.309Z,100298.84
2023-01-12T07:22:42.963Z,100295.00
2023-01-12T07:25:11.615Z,100301.22
2023-01-12T07:27:40.118Z,100293.88
2023-01-12T07:30:10.182Z,100290.31
2023-01-12T07:32:38.656Z,100298.78
2023-01-12T07:35:07.867Z,100303.59
2023-01-12T07:37:37.698Z,100295.56
2023-01-12T07:40:07.091Z,100292.31
2023-01-12T07:42:38.163Z,100296.13
2023-01-12T07:45:07.888Z,100292.50
2023-01-12T07:47:36.367Z,100293.38
2023-01-12T07:50:05.196Z,100313.84
2023-01-12T07:52:33.810Z,100298.78
2023-01-12T07:55:03.785Z,100292.81
2023-01-12T07:57:32.270Z,100294.63
2023-01-12T08:00:00.827Z,100296.28
2023-01-12T08:02:29.782Z,100304.28
2023-01-12T08:04:58.312Z,100292.16
2023-01-12T08:07:27.567Z,100304.69
2023-01-12T08:09:56.060Z,100293.53
2023-01-12T08:12:25.709Z,100292.59
2023-01-12T08:14:53.933Z,100290.44
2023-01-12T08:17:24.038Z,100277.28
2023-01-12T08:19:58.780Z,100294.72
2023-01-12T08:22:34.579Z,100297.84
2023-01-12T08:25:10.756Z,100298.56
2023-01-12T08:27:46.563Z,100303.22
2023-01-12T08:30:16.734Z,100302.44
2023-01-12T08:32:46.786Z,100292.03
2023-01-12T08:35:18.077Z,100293.28
2023-01-12T08:37:46.647Z,100289.31
2023-01-12T08:40:16.222Z,100283.53
2023-01-12T08:42:46.368Z,100295.41
2023-01-12T08:45:14.886Z,100300.19
2023-01-12T08:47:45.258Z,100302.91
2023-01-12T08:50:14.196Z,100293.59
2023-01-12T08:52:42.689Z,100300.00
2023-01-12T08:55:11.921Z,100309.28
2023-01-12T08:57:40.371Z,100309.97
2023-01-12T09:00:11.807Z,100310.03
2023-01-12T09:02:40.339Z,100306.38
2023-01-12T09:05:09.653Z,100309.59
2023-01-12T09:07:38.168Z,100318.53
2023-01-12T09:10:07.948Z,100315.53
2023-01-12T09:12:36.491Z,100313.66
2023-01-12T09:15:05.286Z,100319.38
2023-01-12T09:17:35.149Z,100324.19
2023-01-12T09:20:03.753Z,100323.22
2023-01-12T09:22:32.244Z,100318.34
2023-01-12T09:25:00.782Z,100318.59
2023-01-12T09:27:29.305Z,100294.84
2023-01-12T09:29:57.833Z,100317.88
2023-01-12T09:32:36.186Z,100317.50
2023-01-12T09:35:07.376Z,100313.91
2023-01-12T09:37:35.872Z,100331.59
2023-01-12T09:40:04.929Z,100334.19
2023-01-12T09:42:50.838Z,100340.13
2023-01-12T09:45:39.592Z,100352.00
2023-01-12T09:48:10.976Z,100346.06
2023-01-12T09:50:43.278Z,100337.03
2023-01-12T09:53:18.592Z,100351.66
2023-01-12T09:55:52.940Z,100355.75
2023-01-12T09:58:35.091Z,100356.22
2023-01-12T10:01:14.582Z,100354.56
2023-01-12T10:03:46.127Z,100347.13
2023-01-12T10:06:17.996Z,100361.97
2023-01-12T10:08:50.963Z,100353.59
2023-01-12T10:11:26.863Z,100352.06
2023-01-12T10:14:21.804Z,100359.38
2023-01-12T10:17:01.408Z,100378.06
2023-01-12T10:19:40.836Z,100377.81
2023-01-12T10:22:36.951Z,100377.78
2023-01-12T10:25:22.527Z,100376.00
2023-01-12T10:27:52.895Z,100375.28
2023-01-12T10:30:28.927Z,100388.56
2023-01-12T10:32:57.452Z,100379.81
2023-01-12T10:35:27.201Z,100375.28
2023-01-12T10:37:57.839Z,100368.94
2023-01-12T10:40:31.920Z,100382.81
2023-01-12T10:43:32.257Z,100368.22
2023-01-12T10:46:12.488Z,100369.66
2023-01-12T10:48:43.312Z,100384.53
2023-01-12T10:51:30.551Z,100389.94
2023-01-12T10:54:03.458Z,100366.66
2023-01-12T10:56:36.566Z,100383.56
2023-01-12T10:59:16.831Z,100365.09
2023-01-12T11:01:48.914Z,100371.69
2023-01-12T11:04:21.038Z,100384.78
2023-01-12T11:07:02.211Z,100380.00
2023-01-12T11:09:33.292Z,100362.34
2023-01-12T11:12:03.451Z,100376.03
2023-01-12T11:14:34.099Z,100373.38
2023-01-12T11:17:24.094Z,100367.31
2023-01-12T11:19:53.882Z,100370.53
2023-01-12T11:22:27.485Z,100363.50
2023-01-12T11:25:03.386Z,100364.53
2023-01-12T11:27:36.955Z,100366.94
2023-01-12T11:30:15.826Z,100360.22
2023-01-12T11:32:50.037Z,100367.88
2023-01-12T11:35:29.638Z,100371.88
2023-01-12T11:38:02.092Z,100367.75
2023-01-12T11:40:34.930Z,100362.03
2023-01-12T11:43:29.578Z,100359.16
2023-01-12T11:46:06.054Z,100356.63
2023-01-12T11:48:44.445Z,100365.03
2023-01-12T11:51:14.763Z,100363.81
2023-01-12T11:53:44.265Z,100358.09
2023-01-12T11:56:51.291Z,100356.84
2023-01-12T11:59:25.600Z,100347.50
2023-01-12T12:02:00.989Z,100357.03
2023-01-12T12:04:49.121Z,100349.44
2023-01-12T12:07:32.455Z,100356.19
2023-01-12T12:10:16.171Z,100355.81
2023-01-12T12:13:03.136Z,100342.84
2023-01-12T12:15:40.261Z,100344.50
2023-01-12T12:18:18.619Z,100346.69
2023-01-12T12:21:10.626Z,100340.56
2023-01-12T12:23:48.255Z,100345.94
2023-01-12T12:26:24.643Z,100347.28
2023-01-12T12:29:26.816Z,100341.63
2023-01-12T12:32:10.804Z,100341.16
2023-01-12T12:35:10.352Z,100333.72
2023-01-12T12:37:53.699Z,100346.59
2023-01-12T12:40:57.198Z,100314.94
2023-01-12T12:43:49.673Z,100325.34
2023-01-12T12:46:27.977Z,100318.03
2023-01-12T12:49:02.058Z,100322.81
2023-01-12T12:51:33.403Z,100318.38
2023-01-12T12:54:06.448Z,100340.69
2023-01-12T12:56:37.277Z,100309.41
2023-01-12T12:59:06.073Z,100323.31
2023-01-12T13:01:43.395Z,100315.38
2023-01-12T13:04:14.436Z,100317.06
2023-01-12T13:06:48.732Z,100309.06
2023-01-12T13:09:39.963Z,100310.16
2023-01-12T13:12:21.347Z,100311.34
2023-01-12T13:15:37.380Z,100305.06
2023-01-12T13:18:29.737Z,100309.53
2023-01-12T13:20:59.711Z,100305.81
2023-01-12T13:23:50.554Z,100323.91
2023-01-12T13:26:39.268Z,100303.66
2023-01-12T13:29:44.241Z,100307.00
2023-01-12T13:32:46.254Z,100313.72
2023-01-12T13:35:59.914Z,100306.06
2023-01-12T13:38:53.955Z,100296.59
2023-01-12T13:41:44.549Z,100307.13
2023-01-12T13:44:20.893Z,100307.00
2023-01-12T13:46:51.350Z,100300.88
2023-01-12T13:49:29.421Z,100301.41
2023-01-12T13:52:02.088Z,100296.22
2023-01-12T13:54:33.513Z,100297.53
2023-01-12T13:57:05.451Z,100299.13
2023-01-12T13:59:35.243Z,100308.44
2023-01-12T14:02:04.920Z,100305.34
2023-01-12T14:05:01.068Z,100301.41
2023-01-12T14:07:49.536Z,100300.53
2023-01-12T14:10:33.755Z,100299.13
2023-01-12T14:13:28.651Z,100305.34
2023-01-12T14:16:19.855Z,100306.66
2023-01-12T14:18:50.022Z,100291.94
2023-01-12T14:21:24.689Z,100302.84
2023-01-12T14:23:53.391Z,100295.88
2023-01-12T14:26:27.188Z,100304.13
2023-01-12T14:28:55.746Z,100304.00
2023-01-12T14:31:28.161Z,100303.38
2023-01-12T14:33:59.362Z,100295.63
2023-01-12T14:36:30.599Z,100291.91
2023-01-12T14:39:00.461Z,100294.66
2023-01-12T14:41:49.051Z,100298.03
2023-01-12T14:44:39.016Z,100292.81
2023-01-12T14:47:08.215Z,100285.94
2023-01-12T14:49:38.546Z,100279.22
2023-01-12T14:52:26.207Z,100290.25
2023-01-12T14:54:54.752Z,100281.59
2023-01-12T14:57:31.305Z,100270.81
2023-01-12T15:00:00.079Z,100279.44
2023-01-12T15:02:34.426Z,100275.75
2023-01-12T15:05:06.112Z,100276.94
2023-01-12T15:07:37.780Z,100275.50
2023-01-12T15:10:28.267Z,100273.81
2023-01-12T15:13:00.493Z,100268.19
2023-01-12T15:15:52.082Z,100271.53
2023-01-12T15:18:38.097Z,100262.91
2023-01-12T15:21:24.636Z,100265.44
2023-01-12T15:24:10.670Z,100261.56
2023-01-12T15:26:39.204Z,100267.97
2023-01-12T15:29:10.041Z,100275.22
2023-01-12T15:31:39.630Z,100269.31
2023-01-12T15:34:11.158Z,100259.69
2023-01-12T15:36:39.678Z,100254.75
2023-01-12T15:39:08.217Z,100255.78
2023-01-12T15:41:55.664Z,100263.16
2023-01-12T15:44:25.943Z,100247.16
2023-01-12T15:46:54.892Z,100250.88
2023-01-12T15:49:23.379Z,100248.97
2023-01-12T15:51:52.494Z,100260.97
2023-01-12T15:54:22.090Z,100259.91
2023-01-12T15:56:50.613Z,100256.13
2023-01-12T15:59:19.082Z,100255.25
2023-01-12T16:01:50.005Z,100241.22
2023-01-12T16:07:09.005Z,100250.34
2023-01-12T16:09:37.714Z,100246.25
2023-01-12T16:12:07.683Z,100253.91
2023-01-12T16:14:36.198Z,100250.47
2023-01-12T16:17:06.045Z,100242.50
2023-01-12T16:19:41.100Z,100234.34
2023-01-12T16:22:16.246Z,100239.03
2023-01-12T16:24:45.030Z,100237.22
2023-01-12T16:27:14.007Z,100234.63
2023-01-12T16:29:42.688Z,100232.34
2023-01-12T16:32:12.960Z,100232.81
2023-01-12T16:34:42.313Z,100239.41
2023-01-12T16:37:13.724Z,100237.03
2023-01-12T16:39:42.742Z,100237.63
2023-01-12T16:42:12.017Z,100236.63
2023-01-12T16:44:41.548Z,100239.91
2023-01-12T16:47:14.988Z,100227.44
2023-01-12T16:49:43.753Z,100230.75
2023-01-12T16:52:15.009Z,100229.34
2023-01-12T16:54:43.673Z,100220.81
2023-01-12T16:57:13.021Z,100222.97
2023-01-12T16:59:41.571Z,100209.81
2023-01-12T17:02:14.726Z,100227.28
2023-01-12T17:04:44.885Z,100218.94
2023-01-12T17:07:13.731Z,100213.16
2023-01-12T17:09:42.450Z,100223.03
2023-01-12T17:12:11.417Z,100217.31
2023-01-12T17:14:40.113Z,100223.59
2023-01-12T17:17:11.274Z,100219.16
2023-01-12T17:19:43.603Z,100221.59
2023-01-12T17:22:13.023Z,100217.66
2023-01-12T17:24:41.979Z,100212.69
2023-01-12T17:27:11.612Z,100218.28
2023-01-12T17:29:40.416Z,100219.16
2023-01-12T17:32:09.273Z,100217.69
2023-01-12T17:34:41.602Z,100222.97
2023-01-12T17:37:10.493Z,100200.56
2023-01-12T17:39:41.370Z,100219.50
2023-01-12T17:42:28.766Z,100211.34
2023-01-12T17:44:57.293Z,100207.25
2023-01-12T17:47:26.632Z,100218.13
2023-01-12T17:49:56.673Z,100210.94
2023-01-12T17:52:26.185Z,100205.47
2023-01-12T17:54:54.766Z,100206.91
2023-01-12T17:57:23.231Z,100203.59
2023-01-12T17:59:52.346Z,100207.25
2023-01-12T18:02:20.922Z,100213.59
2023-01-12T18:04:49.455Z,100204.97
2023-01-12T18:07:19.538Z,100206.44
2023-01-12T18:09:48.076Z,100213.53
2023-01-12T18:12:17.767Z,100207.59
2023-01-12T18:14:46.277Z,100212.44
2023-01-12T18:17:14.498Z,100207.50
2023-01-12T18:19:42.769Z,100204.56
2023-01-12T18:22:11.192Z,100202.25
2023-01-12T18:24:40.846Z,100209.84
2023-01-12T18:27:09.132Z,100198.91
2023-01-12T18:29:37.876Z,100204.41
2023-01-12T18:32:06.786Z,100205.59
2023-01-12T18:34:36.009Z,100203.22
2023-01-12T18:37:04.780Z,100204.03
2023-01-12T18:39:33.274Z,100215.81
2023-01-12T18:42:20.752Z,100206.56
2023-01-12T18:44:50.099Z,100211.25
2023-01-12T18:47:35.979Z,100211.25
2023-01-12T18:50:18.524Z,100208.69
2023-01-12T18:53:04.555Z,100194.47
2023-01-12T18:55:34.914Z,100214.19
2023-01-12T18:58:05.005Z,100201.13
2023-01-12T19:00:33.560Z,100209.22
2023-01-12T19:03:03.594Z,100187.28
2023-01-12T19:05:36.523Z,100202.25
2023-01-12T19:08:25.786Z,100193.28
2023-01-12T19:10:53.597Z,100197.63
2023-01-12T19:13:41.046Z,100198.16
2023-01-12T19:16:35.476Z,100189.94
2023-01-12T19:19:03.965Z,100195.91
2023-01-12T19:22:04.306Z,100196.38
2023-01-12T19:24:58.738Z,100186.59
2023-01-12T19:27:45.083Z,100193.28
2023-01-12T19:30:15.468Z,100192.22
2023-01-12T19:32:44.036Z,100189.44
2023-01-12T19:35:12.669Z,100191.59
2023-01-12T19:37:42.573Z,100192.56
2023-01-12T19:40:18.562Z,100180.63
2023-01-12T19:43:04.462Z,100194.47
2023-01-12T19:45:37.427Z,100195.31
2023-01-12T19:48:07.397Z,100192.41
2023-01-12T19:50:36.168Z,100188.09
2023-01-12T19:53:04.975Z,100187.66
2023-01-12T19:55:34.551Z,100185.47
2023-01-12T19:58:08.412Z,100186.59
2023-01-12T20:00:43.154Z,100191.78
2023-01-12T20:03:11.931Z,100178.66
2023-01-12T20:05:40.837Z,100186.34
2023-01-12T20:08:10.116Z,100179.00
2023-01-12T20:10:39.239Z,100186.72
2023-01-12T20:13:08.559Z,100182.47
2023-01-12T20:15:40.472Z,100187.31
2023-01-12T20:18:09.136Z,100196.16
2023-01-12T20:20:37.481Z,100190.78
2023-01-12T20:23:06.196Z,100189.25
2023-01-12T20:25:35.063Z,100191.88
2023-01-12T20:28:03.580Z,100193.16
2023-01-12T20:30:45.903Z,100183.94
2023-01-12T20:33:15.750Z,100178.91
2023-01-12T20:35:46.321Z,100189.81
2023-01-12T20:38:16.411Z,100186.69
2023-01-12T20:40:45.772Z,100185.81
2023-01-12T20:43:14.349Z,100181.44
2023-01-12T20:45:44.494Z,100185.59
2023-01-12T20:48:15.429Z,100183.38
2023-01-12T20:50:45.497Z,100192.97
2023-01-12T20:53:14.656Z,100188.59
2023-01-12T20:55:44.689Z,100188.47
2023-01-12T20:58:15.523Z,100184.72
2023-01-12T21:00:44.144Z,100183.09
2023-01-12T21:03:12.779Z,100177.59
2023-01-12T21:05:45.919Z,100183.78
2023-01-12T21:08:16.378Z,100192.06
2023-01-12T21:10:50.267Z,100186.34
2023-01-12T21:13:19.304Z,100177.22
2023-01-12T21:15:47.884Z,100180.69
2023-01-12T21:18:16.114Z,100171.81
2023-01-12T21:20:46.242Z,100174.97
2023-01-12T21:23:14.460Z,100167.19
2023-01-12T21:25:43.777Z,100168.47
2023-01-12T21:28:12.472Z,100173.09
2023-01-12T21:30:41.623Z,100165.91
2023-01-12T21:33:10.865Z,100172.44
2023-01-12T21:35:39.595Z,100165.91
2023-01-12T21:38:09.511Z,100158.16
2023-01-12T21:40:38.673Z,100165.53
2023-01-12T21:43:08.720Z,100161.94
2023-01-12T21:45:37.390Z,100157.69
2023-01-12T21:48:06.587Z,100151.81
2023-01-12T21:50:35.455Z,100166.06
2023-01-12T21:53:05.051Z,100168.38
2023-01-12T21:55:35.474Z,100170.75
2023-01-12T21:58:03.943Z,100171.28
2023-01-12T22:00:32.749Z,100165.72
2023-01-12T22:03:00.976Z,100163.44
2023-01-12T22:05:29.140Z,100160.59
2023-01-12T22:07:57.859Z,100158.78
2023-01-12T22:10:30.441Z,100166.00
2023-01-12T22:13:03.013Z,100154.97
2023-01-12T22:15:31.499Z,100153.66
2023-01-12T22:18:00.229Z,100150.84
2023-01-12T22:20:28.785Z,100141.59
2023-01-12T22:22:57.259Z,100133.13
2023-01-12T22:25:26.031Z,100135.44
2023-01-12T22:27:54.650Z,100130.47
2023-01-12T22:30:25.539Z,100130.84
2023-01-12T22:32:55.613Z,100127.94
2023-01-12T22:35:26.107Z,100124.94
2023-01-12T22:37:54.752Z,100136.72
2023-01-12T22:40:23.061Z,100133.63
2023-01-12T22:43:08.899Z,100130.03
2023-01-12T22:45:38.635Z,100137.88
2023-01-12T22:48:07.885Z,100119.63
2023-01-12T22:50:36.178Z,100135.88
2023-01-12T22:53:04.453Z,100124.44
2023-01-12T22:55:32.643Z,100121.59
2023-01-12T22:58:00.881Z,100127.00
2023-01-12T23:00:29.180Z,100129.31
2023-01-12T23:03:01.996Z,100132.00
2023-01-12T23:05:36.079Z,100126.31
2023-01-12T23:08:05.914Z,100123.31
2023-01-12T23:10:35.035Z,100117.59
2023-01-12T23:13:14.045Z,100109.59
2023-01-12T23:15:46.013Z,100107.50
2023-01-12T23:18:18.884Z,100113.91
2023-01-12T23:20:47.764Z,100107.34
2023-01-12T23:23:18.144Z,100106.63
2023-01-12T23:25:47.861Z,100113.81
2023-01-12T23:28:17.121Z,100109.72
2023-01-12T23:30:46.011Z,100111.09
2023-01-12T23:33:15.684Z,100120.47
2023-01-12T23:35:44.201Z,100114.78
2023-01-12T23:38:17.246Z,100141.38
2023-01-12T23:40:45.742Z,100135.38
2023-01-12T23:43:14.079Z,100123.56
2023-01-12T23:45:42.460Z,100110.81
2023-01-12T23:48:10.833Z,100102.34
2023-01-12T23:50:40.555Z,100117.44
2023-01-12T23:53:09.151Z,100111.84
2023-01-12T23:55:40.315Z,100128.81
2023-01-12T23:58:09.334Z,100111.09
